createdAt,value
2019-02-09T00:02:28.688Z,8.10
2019-02-09T00:04:59.078Z,8.10
2019-02-09T00:07:29.269Z,8.20
2019-02-09T00:09:59.563Z,8.10
2019-02-09T00:12:29.946Z,8.10
2019-02-09T00:15:00.251Z,8.00
2019-02-09T00:17:30.371Z,8.00
2019-02-09T00:20:00.785Z,8.00
2019-02-09T00:22:31.211Z,8.00
2019-02-09T00:25:01.911Z,8.00
2019-02-09T00:27:32.298Z,8.00
2019-02-09T00:30:02.546Z,8.00
2019-02-09T00:32:33.374Z,8.00
2019-02-09T00:35:04.654Z,8.00
2019-02-09T00:37:34.687Z,8.00
2019-02-09T00:40:07.957Z,7.90
2019-02-09T00:42:38.270Z,8.00
2019-02-09T00:45:14.386Z,8.00
2019-02-09T00:47:44.582Z,8.00
2019-02-09T00:50:16.629Z,7.90
2019-02-09T00:52:46.881Z,8.00
2019-02-09T00:55:27.928Z,7.90
2019-02-09T00:57:58.370Z,7.90
2019-02-09T01:00:32.667Z,7.90
2019-02-09T01:03:02.930Z,7.80
2019-02-09T01:05:41.902Z,7.80
2019-02-09T01:08:12.431Z,7.90
2019-02-09T01:10:42.889Z,7.90
2019-02-09T01:13:13.101Z,7.90
2019-02-09T01:15:43.527Z,7.90
2019-02-09T01:18:13.770Z,7.80
2019-02-09T01:20:43.970Z,7.80
2019-02-09T01:23:14.019Z,7.90
2019-02-09T01:25:44.209Z,7.90
2019-02-09T01:28:14.625Z,7.90
2019-02-09T01:30:45.095Z,7.90
2019-02-09T01:33:15.434Z,7.90
2019-02-09T01:35:45.769Z,7.80
2019-02-09T01:38:16.057Z,7.80
2019-02-09T01:40:46.449Z,7.80
2019-02-09T01:43:17.226Z,7.80
2019-02-09T01:45:47.496Z,7.80
2019-02-09T01:48:17.786Z,7.80
2019-02-09T01:50:48.083Z,7.80
2019-02-09T01:53:18.346Z,7.70
2019-02-09T01:55:48.616Z,7.70
2019-02-09T01:58:19.233Z,7.70
2019-02-09T02:00:49.568Z,7.70
2019-02-09T02:03:19.873Z,7.70
2019-02-09T02:05:50.188Z,7.70
2019-02-09T02:08:22.347Z,7.70
2019-02-09T02:10:52.679Z,7.70
2019-02-09T02:13:23.079Z,7.70
2019-02-09T02:15:53.478Z,7.70
2019-02-09T02:18:24.206Z,7.70
2019-02-09T02:20:54.335Z,7.70
2019-02-09T02:23:24.668Z,7.70
2019-02-09T02:25:55.072Z,7.70
2019-02-09T02:28:25.533Z,7.60
2019-02-09T02:30:55.835Z,7.60
2019-02-09T02:33:25.970Z,7.60
2019-02-09T02:35:56.175Z,7.60
2019-02-09T02:38:26.419Z,7.50
2019-02-09T02:40:56.500Z,7.60
2019-02-09T02:43:26.548Z,7.60
2019-02-09T02:45:56.790Z,7.60
2019-02-09T02:48:26.943Z,7.60
2019-02-09T02:50:57.135Z,7.60
2019-02-09T02:53:27.452Z,7.50
2019-02-09T02:55:58.128Z,7.50
2019-02-09T02:58:28.354Z,7.50
2019-02-09T03:00:58.593Z,7.50
2019-02-09T03:03:28.705Z,7.50
2019-02-09T03:05:58.944Z,7.50
2019-02-09T03:08:29.105Z,7.50
2019-02-09T03:10:59.211Z,7.40
2019-02-09T03:13:29.401Z,7.40
2019-02-09T03:15:59.830Z,7.50
2019-02-09T03:18:30.021Z,7.50
2019-02-09T03:21:00.383Z,7.50
2019-02-09T03:23:30.874Z,7.50
2019-02-09T03:26:01.573Z,7.50
2019-02-09T03:28:32.038Z,7.50
2019-02-09T03:31:02.402Z,7.40
2019-02-09T03:33:33.507Z,7.40
2019-02-09T03:36:04.021Z,7.50
2019-02-09T03:38:34.773Z,7.50
2019-02-09T03:41:05.175Z,7.50
2019-02-09T03:43:35.304Z,7.50
2019-02-09T03:46:05.758Z,7.50
2019-02-09T03:48:35.965Z,7.60
2019-02-09T03:51:06.237Z,7.60
2019-02-09T03:53:36.537Z,7.60
2019-02-09T03:56:07.076Z,7.60
2019-02-09T03:58:37.609Z,7.60
2019-02-09T04:01:07.686Z,7.60
2019-02-09T04:03:37.948Z,7.60
2019-02-09T04:06:07.934Z,7.60
2019-02-09T04:08:38.057Z,7.60
2019-02-09T04:11:08.264Z,7.60
2019-02-09T04:13:38.462Z,7.70
2019-02-09T04:16:08.708Z,7.70
2019-02-09T04:18:38.917Z,7.70
2019-02-09T04:21:09.206Z,7.70
2019-02-09T04:23:39.306Z,7.70
2019-02-09T04:26:09.494Z,7.70
2019-02-09T04:28:39.782Z,7.70
2019-02-09T04:31:10.030Z,7.70
2019-02-09T04:33:40.389Z,7.70
2019-02-09T04:36:10.502Z,7.70
2019-02-09T04:38:40.709Z,7.70
2019-02-09T04:41:10.918Z,7.80
2019-02-09T04:43:41.771Z,7.80
2019-02-09T04:46:11.815Z,7.80
2019-02-09T04:48:42.001Z,7.70
2019-02-09T04:51:12.123Z,7.70
2019-02-09T04:53:42.390Z,7.70
2019-02-09T04:56:12.691Z,7.70
2019-02-09T04:58:42.972Z,7.70
2019-02-09T05:01:14.282Z,7.70
2019-02-09T05:03:44.399Z,7.70
2019-02-09T05:06:14.495Z,7.70
2019-02-09T05:08:44.574Z,7.70
2019-02-09T05:11:14.878Z,7.70
2019-02-09T05:13:44.999Z,7.70
2019-02-09T05:16:15.186Z,7.70
2019-02-09T05:18:45.578Z,7.60
2019-02-09T05:21:15.667Z,7.70
2019-02-09T05:23:45.806Z,7.70
2019-02-09T05:26:15.833Z,7.70
2019-02-09T05:28:45.814Z,7.70
2019-02-09T05:31:22.948Z,7.80
2019-02-09T05:33:47.818Z,7.70
2019-02-09T05:36:18.110Z,7.80
2019-02-09T05:38:48.400Z,7.80
2019-02-09T05:41:18.778Z,7.70
2019-02-09T05:43:49.057Z,7.70
2019-02-09T05:46:19.423Z,7.70
2019-02-09T05:48:49.566Z,7.70
2019-02-09T05:51:19.773Z,7.70
2019-02-09T05:53:49.877Z,7.70
2019-02-09T05:56:19.855Z,7.70
2019-02-09T05:58:50.274Z,7.70
2019-02-09T06:01:21.127Z,7.70
2019-02-09T06:03:51.452Z,7.70
2019-02-09T06:06:22.040Z,7.70
2019-02-09T06:08:52.029Z,7.70
2019-02-09T06:11:22.310Z,7.60
2019-02-09T06:13:53.632Z,7.60
2019-02-09T06:16:24.082Z,7.50
2019-02-09T06:18:54.461Z,7.60
2019-02-09T06:21:24.878Z,7.50
2019-02-09T06:23:55.211Z,7.40
2019-02-09T06:26:26.876Z,7.30
2019-02-09T06:28:57.329Z,7.30
2019-02-09T06:31:28.052Z,7.20
